createdAt,value
2023-09-20T00:00:37.943Z,98494.47
2023-09-20T00:01:40.035Z,98507.06
2023-09-20T00:02:43.247Z,98501.47
2023-09-20T00:03:46.701Z,98500.94
2023-09-20T00:04:49.394Z,98489.19
2023-09-20T00:05:52.159Z,98503.13
2023-09-20T00:06:54.589Z,98485.97
2023-09-20T00:07:56.589Z,98497.50
2023-09-20T00:08:59.980Z,98500.28
2023-09-20T00:10:12.607Z,98495.91
2023-09-20T00:11:16.889Z,98485.16
2023-09-20T00:12:19.107Z,98500.56
2023-09-20T00:13:21.467Z,98479.84
2023-09-20T00:14:23.681Z,98494.66
2023-09-20T00:15:25.893Z,98492.34
2023-09-20T00:16:30.216Z,98489.66
2023-09-20T00:17:35.306Z,98495.56
2023-09-20T00:18:38.555Z,98482.63
2023-09-20T00:19:41.351Z,98477.91
2023-09-20T00:20:44.395Z,98496.41
2023-09-20T00:21:47.751Z,98487.81
2023-09-20T00:22:51.833Z,98487.63
2023-09-20T00:23:54.162Z,98481.91
2023-09-20T00:24:57.342Z,98486.31
2023-09-20T00:25:59.614Z,98481.19
2023-09-20T00:27:02.282Z,98474.28
2023-09-20T00:28:07.206Z,98485.56
2023-09-20T00:29:10.201Z,98484.56
2023-09-20T00:30:20.917Z,98483.47
2023-09-20T00:31:22.987Z,98473.03
2023-09-20T00:32:25.122Z,98464.22
2023-09-20T00:33:31.032Z,98474.91
2023-09-20T00:34:34.428Z,98482.53
2023-09-20T00:35:41.966Z,98475.22
2023-09-20T00:36:45.416Z,98470.72
2023-09-20T00:37:47.572Z,98475.56
2023-09-20T00:38:50.832Z,98476.13
2023-09-20T00:39:55.799Z,98471.88
2023-09-20T00:40:58.125Z,98464.06
2023-09-20T00:42:03.227Z,98471.66
2023-09-20T00:43:07.988Z,98469.75
2023-09-20T00:44:10.007Z,98474.06
2023-09-20T00:45:14.924Z,98474.59
2023-09-20T00:46:18.273Z,98468.41
2023-09-20T00:47:21.793Z,98473.00
2023-09-20T00:48:24.065Z,98470.09
2023-09-20T00:49:26.366Z,98476.78
2023-09-20T00:50:34.991Z,98467.97
2023-09-20T00:51:38.330Z,98476.56
2023-09-20T00:52:54.667Z,98469.88
2023-09-20T00:53:59.568Z,98478.19
2023-09-20T00:55:04.335Z,98472.31
2023-09-20T00:56:11.325Z,98477.16
2023-09-20T00:57:13.812Z,98472.31
2023-09-20T00:58:18.753Z,98473.44
2023-09-20T00:59:22.930Z,98471.03
2023-09-20T01:00:28.697Z,98474.53
2023-09-20T01:01:31.025Z,98460.31
2023-09-20T01:02:35.687Z,98467.59
2023-09-20T01:03:38.828Z,98460.31
2023-09-20T01:04:42.047Z,98473.81
2023-09-20T01:05:48.038Z,98461.41
2023-09-20T01:06:51.810Z,98458.72
2023-09-20T01:07:57.830Z,98457.63
2023-09-20T01:08:59.901Z,98462.50
2023-09-20T01:10:01.923Z,98462.22
2023-09-20T01:11:05.013Z,98458.47
2023-09-20T01:12:07.689Z,98450.47
2023-09-20T01:13:11.649Z,98447.16
2023-09-20T01:14:13.715Z,98461.47
2023-09-20T01:15:15.807Z,98454.53
2023-09-20T01:16:17.770Z,98455.25
2023-09-20T01:17:19.939Z,98462.56
2023-09-20T01:18:22.249Z,98459.28
2023-09-20T01:19:24.180Z,98459.28
2023-09-20T01:20:27.862Z,98459.06
2023-09-20T01:21:29.872Z,98461.97
2023-09-20T01:22:31.902Z,98457.97
2023-09-20T01:23:34.288Z,98462.25
2023-09-20T01:24:38.627Z,98454.47
2023-09-20T01:25:41.375Z,98454.47
2023-09-20T01:26:49.409Z,98459.28
2023-09-20T01:27:57.033Z,98458.25
2023-09-20T01:28:59.304Z,98455.59
2023-09-20T01:30:01.349Z,98455.06
2023-09-20T01:31:06.208Z,98464.25
2023-09-20T01:32:08.478Z,98462.91
2023-09-20T01:33:11.017Z,98453.59
2023-09-20T01:34:13.130Z,98458.47
2023-09-20T01:35:18.054Z,98466.19
2023-09-20T01:36:20.625Z,98466.47
2023-09-20T01:37:22.607Z,98463.56
2023-09-20T01:38:26.964Z,98461.69
2023-09-20T01:39:29.045Z,98457.63
2023-09-20T01:40:34.343Z,98447.72
2023-09-20T01:41:37.368Z,98455.22
2023-09-20T01:42:39.636Z,98458.47
2023-09-20T01:43:42.349Z,98455.81
2023-09-20T01:44:44.302Z,98454.94
2023-09-20T01:45:46.401Z,98457.38
2023-09-20T01:46:50.062Z,98457.41
2023-09-20T01:47:55.795Z,98453.06
2023-09-20T01:49:00.065Z,98452.53
2023-09-20T01:50:04.634Z,98438.91
2023-09-20T01:51:06.707Z,98453.13
2023-09-20T01:52:10.155Z,98449.41
2023-09-20T01:53:13.008Z,98445.09
2023-09-20T01:54:19.390Z,98448.59
2023-09-20T01:55:24.874Z,98451.88
2023-09-20T01:56:29.937Z,98444.06
2023-09-20T01:57:32.376Z,98446.75
2023-09-20T01:58:34.339Z,98442.22
2023-09-20T01:59:37.241Z,98439.28
2023-09-20T02:00:41.412Z,98450.00
2023-09-20T02:01:44.734Z,98450.31
2023-09-20T02:02:48.101Z,98447.91
2023-09-20T02:03:51.982Z,98447.34
2023-09-20T02:04:54.401Z,98454.91
2023-09-20T02:06:00.153Z,98445.03
2023-09-20T02:07:02.237Z,98454.38
2023-09-20T02:08:06.292Z,98462.72
2023-09-20T02:09:10.453Z,98455.75
2023-09-20T02:10:12.685Z,98436.97
2023-09-20T02:11:14.833Z,98439.94
2023-09-20T02:12:16.778Z,98451.22
2023-09-20T02:13:19.760Z,98445.63
2023-09-20T02:14:23.270Z,98445.31
2023-09-20T02:15:31.240Z,98433.94
2023-09-20T02:16:33.570Z,98450.72
2023-09-20T02:17:39.546Z,98442.38
2023-09-20T02:18:41.807Z,98457.47
2023-09-20T02:19:47.243Z,98446.69
2023-09-20T02:20:49.436Z,98451.25
2023-09-20T02:21:51.632Z,98446.16
2023-09-20T02:22:56.890Z,98451.84
2023-09-20T02:24:01.321Z,98442.75
2023-09-20T02:25:06.009Z,98446.75
2023-09-20T02:26:08.273Z,98444.63
2023-09-20T02:27:10.467Z,98449.22
2023-09-20T02:28:13.239Z,98440.38
2023-09-20T02:29:15.321Z,98443.88
2023-09-20T02:30:26.053Z,98435.00
2023-09-20T02:31:28.525Z,98443.38
2023-09-20T02:32:33.470Z,98449.78
2023-09-20T02:33:35.389Z,98444.47
2023-09-20T02:34:38.850Z,98441.75
2023-09-20T02:35:40.998Z,98437.75
2023-09-20T02:36:43.095Z,98435.06
2023-09-20T02:37:47.309Z,98442.56
2023-09-20T02:38:49.498Z,98430.97
2023-09-20T02:39:51.573Z,98439.34
2023-09-20T02:40:58.199Z,98435.28
2023-09-20T02:42:01.298Z,98442.84
2023-09-20T02:43:06.513Z,98439.66
2023-09-20T02:44:11.254Z,98452.84
2023-09-20T02:45:19.039Z,98454.22
2023-09-20T02:46:23.135Z,98449.34
2023-09-20T02:47:27.914Z,98456.63
2023-09-20T02:48:30.128Z,98436.69
2023-09-20T02:49:35.654Z,98442.88
2023-09-20T02:50:38.313Z,98428.97
2023-09-20T02:51:42.943Z,98439.41
2023-09-20T02:52:46.842Z,98436.47
2023-09-20T02:53:49.501Z,98444.28
2023-09-20T02:54:52.716Z,98435.91
2023-09-20T02:55:57.787Z,98438.09
2023-09-20T02:57:01.421Z,98426.50
2023-09-20T02:58:03.796Z,98435.38
2023-09-20T02:59:08.481Z,98442.09
2023-09-20T03:00:17.531Z,98438.03
2023-09-20T03:01:22.342Z,98441.28
2023-09-20T03:02:24.720Z,98433.19
2023-09-20T03:03:27.063Z,98437.00
2023-09-20T03:04:30.074Z,98434.59
2023-09-20T03:05:35.459Z,98428.91
2023-09-20T03:06:37.710Z,98434.59
2023-09-20T03:07:40.336Z,98426.81
2023-09-20T03:08:46.077Z,98431.38
2023-09-20T03:09:48.407Z,98426.78
2023-09-20T03:10:51.343Z,98416.63
2023-09-20T03:11:55.660Z,98420.94
2023-09-20T03:12:59.521Z,98425.78
2023-09-20T03:14:04.639Z,98413.94
2023-09-20T03:15:11.440Z,98422.03
2023-09-20T03:16:21.124Z,98424.09
2023-09-20T03:17:23.135Z,98422.31
2023-09-20T03:18:25.255Z,98418.22
2023-09-20T03:19:27.717Z,98416.13
2023-09-20T03:20:34.178Z,98409.16
2023-09-20T03:21:37.442Z,98418.00
2023-09-20T03:22:40.104Z,98417.50
2023-09-20T03:23:44.093Z,98415.59
2023-09-20T03:24:48.769Z,98410.81
2023-09-20T03:25:50.810Z,98405.97
2023-09-20T03:26:53.622Z,98414.56
2023-09-20T03:27:57.379Z,98409.97
2023-09-20T03:28:59.530Z,98403.25
2023-09-20T03:30:06.859Z,98405.97
2023-09-20T03:31:11.926Z,98408.66
2023-09-20T03:32:16.489Z,98405.97
2023-09-20T03:33:21.909Z,98407.81
2023-09-20T03:34:24.035Z,98410.28
2023-09-20T03:35:26.802Z,98393.06
2023-09-20T03:36:28.907Z,98407.09
2023-09-20T03:37:33.917Z,98399.28
2023-09-20T03:38:36.590Z,98410.06
2023-09-20T03:39:42.586Z,98408.19
2023-09-20T03:40:44.900Z,98402.25
2023-09-20T03:41:47.252Z,98412.47
2023-09-20T03:42:53.726Z,98408.19
2023-09-20T03:43:57.562Z,98403.03
2023-09-20T03:44:59.743Z,98413.03
2023-09-20T03:46:02.839Z,98411.41
2023-09-20T03:47:09.737Z,98410.88
2023-09-20T03:48:11.803Z,98405.75
2023-09-20T03:49:16.196Z,98413.56
2023-09-20T03:50:20.772Z,98399.31
2023-09-20T03:51:22.676Z,98407.38
2023-09-20T03:52:24.916Z,98397.94
2023-09-20T03:53:27.176Z,98403.03
2023-09-20T03:54:30.861Z,98400.94
2023-09-20T03:55:37.316Z,98403.84
2023-09-20T03:56:42.606Z,98405.22
2023-09-20T03:57:45.066Z,98407.41
2023-09-20T03:58:47.195Z,98407.41
2023-09-20T03:59:49.184Z,98411.19
2023-09-20T04:00:51.790Z,98398.59
2023-09-20T04:01:54.829Z,98394.56
2023-09-20T04:02:58.218Z,98401.53
2023-09-20T04:04:01.802Z,98399.94
2023-09-20T04:05:19.202Z,98401.53
2023-09-20T04:06:34.703Z,98403.41
2023-09-20T04:07:37.279Z,98390.78
2023-09-20T04:08:40.073Z,98396.44
2023-09-20T04:09:42.981Z,98393.81
2023-09-20T04:10:44.863Z,98397.03
2023-09-20T04:11:46.901Z,98392.44
2023-09-20T04:12:49.830Z,98387.34
2023-09-20T04:13:51.815Z,98389.22
2023-09-20T04:14:54.699Z,98382.06
2023-09-20T04:15:56.882Z,98380.94
2023-09-20T04:17:00.569Z,98386.31
2023-09-20T04:18:16.517Z,98383.63
2023-09-20T04:19:25.145Z,98379.03
2023-09-20T04:20:27.687Z,98379.28
2023-09-20T04:21:31.527Z,98383.66
2023-09-20T04:22:36.780Z,98379.06
2023-09-20T04:23:39.662Z,98378.28
2023-09-20T04:24:41.640Z,98376.94
2023-09-20T04:25:44.129Z,98382.34
2023-09-20T04:26:46.072Z,98378.84
2023-09-20T04:27:48.071Z,98374.06
2023-09-20T04:28:50.220Z,98380.47
2023-09-20T04:29:52.140Z,98383.16
2023-09-20T04:30:54.044Z,98382.38
2023-09-20T04:31:56.938Z,98378.13
2023-09-20T04:33:00.373Z,98379.97
2023-09-20T04:34:02.715Z,98378.66
2023-09-20T04:35:05.740Z,98370.88
2023-09-20T04:36:07.936Z,98377.31
2023-09-20T04:37:10.397Z,98381.91
2023-09-20T04:38:12.774Z,98367.44
2023-09-20T04:39:16.474Z,98373.06
2023-09-20T04:40:24.632Z,98377.06
2023-09-20T04:41:26.882Z,98369.28
2023-09-20T04:42:34.973Z,98349.47
2023-09-20T04:43:42.408Z,98373.88
2023-09-20T04:44:44.519Z,98370.94
2023-09-20T04:45:46.470Z,98369.06
2023-09-20T04:46:48.843Z,98375.28
2023-09-20T04:47:51.106Z,98383.31
2023-09-20T04:48:54.878Z,98365.63
2023-09-20T04:49:57.266Z,98377.41
2023-09-20T04:50:59.358Z,98372.03
2023-09-20T04:52:02.253Z,98363.69
2023-09-20T04:53:05.700Z,98372.59
2023-09-20T04:54:09.085Z,98370.13
2023-09-20T04:55:14.656Z,98365.59
2023-09-20T04:56:17.591Z,98365.59
2023-09-20T04:57:19.607Z,98371.50
2023-09-20T04:58:21.576Z,98366.41
2023-09-20T04:59:24.257Z,98366.97
2023-09-20T05:00:34.990Z,98370.19
2023-09-20T05:01:37.513Z,98372.88
2023-09-20T05:02:39.685Z,98370.47
2023-09-20T05:03:42.388Z,98365.69
2023-09-20T05:04:44.405Z,98369.19
2023-09-20T05:05:53.545Z,98379.91
2023-09-20T05:06:55.703Z,98376.94
2023-09-20T05:08:00.741Z,98381.78
2023-09-20T05:09:04.696Z,98373.47
2023-09-20T05:10:07.959Z,98375.88
2023-09-20T05:11:11.781Z,98378.56
2023-09-20T05:12:13.922Z,98371.59
2023-09-20T05:13:18.013Z,98376.16
2023-09-20T05:14:20.318Z,98380.22
2023-09-20T05:15:24.529Z,98382.34
2023-09-20T05:16:26.674Z,98377.03
2023-09-20T05:17:29.158Z,98374.34
2023-09-20T05:18:33.297Z,98374.84
2023-09-20T05:19:36.437Z,98379.66
2023-09-20T05:20:38.408Z,98383.44
2023-09-20T05:21:41.569Z,98376.75
2023-09-20T05:22:43.748Z,98364.91
2023-09-20T05:23:45.964Z,98374.34
2023-09-20T05:24:47.939Z,98373.53
2023-09-20T05:25:50.929Z,98370.84
2023-09-20T05:26:52.887Z,98366.28
2023-09-20T05:27:56.057Z,98380.81
2023-09-20T05:28:59.338Z,98369.50
2023-09-20T05:30:02.115Z,98381.88
2023-09-20T05:31:06.975Z,98378.66
2023-09-20T05:32:09.407Z,98378.66
2023-09-20T05:33:14.816Z,98379.72
2023-09-20T05:34:16.724Z,98386.44
2023-09-20T05:35:19.556Z,98385.91
2023-09-20T05:36:22.449Z,98376.00
2023-09-20T05:37:24.308Z,98389.41
2023-09-20T05:38:27.248Z,98380.81
2023-09-20T05:39:31.129Z,98381.09
2023-09-20T05:40:34.298Z,98382.44
2023-09-20T05:41:37.722Z,98377.03
2023-09-20T05:42:40.695Z,98392.09
2023-09-20T05:43:44.112Z,98388.59
2023-09-20T05:44:46.058Z,98391.00
2023-09-20T05:45:48.048Z,98389.97
2023-09-20T05:46:51.480Z,98391.81
2023-09-20T05:47:55.745Z,98384.56
2023-09-20T05:48:58.471Z,98374.06
2023-09-20T05:50:00.654Z,98376.50
2023-09-20T05:51:03.257Z,98368.97
2023-09-20T05:52:07.628Z,98373.81
2023-09-20T05:53:12.426Z,98374.34
2023-09-20T05:54:16.774Z,98379.44
2023-09-20T05:55:20.096Z,98380.50
2023-09-20T05:56:22.486Z,98372.72
2023-09-20T05:57:24.929Z,98347.25
2023-09-20T05:58:31.474Z,98377.81
2023-09-20T05:59:34.766Z,98383.72
2023-09-20T06:00:37.811Z,98372.97
2023-09-20T06:01:41.727Z,98386.41
2023-09-20T06:02:46.033Z,98375.97
2023-09-20T06:03:48.298Z,98375.66
2023-09-20T06:04:51.996Z,98365.81
2023-09-20T06:05:54.086Z,98380.03
2023-09-20T06:06:56.183Z,98366.63
2023-09-20T06:07:59.084Z,98382.94
2023-09-20T06:09:01.181Z,98382.44
2023-09-20T06:10:03.496Z,98379.78
2023-09-20T06:11:05.759Z,98387.00
2023-09-20T06:12:08.047Z,98387.81
2023-09-20T06:13:10.911Z,98396.97
2023-09-20T06:14:13.143Z,98384.59
2023-09-20T06:15:15.624Z,98387.81
2023-09-20T06:16:18.388Z,98373.88
2023-09-20T06:17:20.355Z,98390.50
2023-09-20T06:18:22.998Z,98391.59
2023-09-20T06:19:26.693Z,98386.19
2023-09-20T06:20:29.469Z,98395.88
2023-09-20T06:21:32.806Z,98391.06
2023-09-20T06:22:37.101Z,98396.44
2023-09-20T06:23:40.874Z,98384.66
2023-09-20T06:24:46.379Z,98399.09
2023-09-20T06:25:48.798Z,98400.16
2023-09-20T06:26:50.670Z,98400.16
2023-09-20T06:27:54.667Z,98400.16
2023-09-20T06:28:57.083Z,98403.41
2023-09-20T06:30:08.054Z,98395.34
2023-09-20T06:31:17.594Z,98398.81
2023-09-20T06:32:21.627Z,98398.53
2023-09-20T06:33:24.052Z,98390.50
2023-09-20T06:34:27.477Z,98398.03
2023-09-20T06:35:29.908Z,98397.25
2023-09-20T06:36:31.865Z,98398.81
2023-09-20T06:37:35.276Z,98395.59
2023-09-20T06:38:37.459Z,98384.31
2023-09-20T06:39:45.298Z,98389.97
2023-09-20T06:40:57.125Z,98388.31
2023-09-20T06:41:59.607Z,98396.88
2023-09-20T06:43:02.823Z,98400.09
2023-09-20T06:44:05.445Z,98398.22
2023-09-20T06:45:10.255Z,98383.72
2023-09-20T06:46:13.353Z,98394.97
2023-09-20T06:47:16.194Z,98392.28
2023-09-20T06:48:28.612Z,98383.94
2023-09-20T06:49:31.305Z,98389.84
2023-09-20T06:50:33.272Z,98387.16
2023-09-20T06:51:35.799Z,98386.63
2023-09-20T06:52:37.888Z,98390.91
2023-09-20T06:53:39.839Z,98379.06
2023-09-20T06:54:44.236Z,98384.97
2023-09-20T06:55:49.097Z,98385.47
2023-09-20T06:56:52.510Z,98384.41
2023-09-20T06:58:08.899Z,98388.97
2023-09-20T06:59:18.120Z,98384.34
2023-09-20T07:00:28.101Z,98383.81
2023-09-20T07:01:30.865Z,98376.03
2023-09-20T07:02:33.842Z,98382.72
2023-09-20T07:03:35.868Z,98375.72
2023-09-20T07:04:40.546Z,98382.72
2023-09-20T07:05:43.017Z,98385.13
2023-09-20T07:06:45.318Z,98383.22
2023-09-20T07:07:48.530Z,98381.84
2023-09-20T07:08:50.631Z,98378.88
2023-09-20T07:09:52.938Z,98387.47
2023-09-20T07:10:55.140Z,98384.50
2023-09-20T07:11:57.173Z,98375.66
2023-09-20T07:12:59.327Z,98369.19
2023-09-20T07:14:07.138Z,98366.00
2023-09-20T07:15:10.370Z,98373.41
2023-09-20T07:16:12.664Z,98377.47
2023-09-20T07:17:15.594Z,98379.28
2023-09-20T07:18:19.331Z,98376.59
2023-09-20T07:19:25.143Z,98371.75
2023-09-20T07:20:28.128Z,98368.53
2023-09-20T07:21:30.434Z,98371.19
2023-09-20T07:22:32.355Z,98378.16
2023-09-20T07:23:36.297Z,98370.38
2023-09-20T07:24:38.483Z,98379.19
2023-09-20T07:25:42.702Z,98384.59
2023-09-20T07:26:45.199Z,98378.66
2023-09-20T07:27:50.648Z,98372.72
2023-09-20T07:28:52.427Z,98359.84
2023-09-20T07:29:54.724Z,98367.31
2023-09-20T07:30:57.299Z,98372.41
2023-09-20T07:32:01.238Z,98367.00
2023-09-20T07:33:11.841Z,98362.94
2023-09-20T07:34:15.362Z,98370.19
2023-09-20T07:35:27.897Z,98368.56
2023-09-20T07:36:38.058Z,98362.91
2023-09-20T07:37:44.480Z,98358.81
2023-09-20T07:38:47.176Z,98363.91
2023-09-20T07:39:51.802Z,98355.31
2023-09-20T07:40:55.394Z,98356.13
2023-09-20T07:41:59.623Z,98357.19
2023-09-20T07:43:18.728Z,98359.06
2023-09-20T07:44:25.787Z,98356.06
2023-09-20T07:45:37.061Z,98353.69
2023-09-20T07:46:40.577Z,98359.25
2023-09-20T07:47:44.861Z,98356.34
2023-09-20T07:48:51.490Z,98351.16
2023-09-20T07:49:54.668Z,98351.69
2023-09-20T07:50:56.724Z,98346.59
2023-09-20T07:51:58.553Z,98346.06
2023-09-20T07:53:02.234Z,98352.78
2023-09-20T07:54:07.320Z,98346.06
2023-09-20T07:55:09.410Z,98352.47
2023-09-20T07:56:13.676Z,98347.38
2023-09-20T07:57:16.748Z,98343.38
2023-09-20T07:58:21.181Z,98342.28
2023-09-20T07:59:27.737Z,98350.88
2023-09-20T08:00:30.046Z,98339.31
2023-09-20T08:01:34.979Z,98330.78
2023-09-20T08:02:38.302Z,98339.56
2023-09-20T08:03:47.658Z,98341.41
2023-09-20T08:04:49.611Z,98329.91
2023-09-20T08:05:55.569Z,98342.25
2023-09-20T08:06:57.700Z,98341.16
2023-09-20T08:08:00.000Z,98346.53
2023-09-20T08:09:04.174Z,98341.16
2023-09-20T08:10:07.565Z,98346.53
2023-09-20T08:11:14.034Z,98342.25
2023-09-20T08:12:18.082Z,98338.97
2023-09-20T08:13:20.625Z,98345.97
2023-09-20T08:14:23.860Z,98343.25
2023-09-20T08:15:26.254Z,98351.06
2023-09-20T08:16:46.975Z,98339.75
2023-09-20T08:18:13.719Z,98348.31
2023-09-20T08:19:15.673Z,98338.88
2023-09-20T08:20:22.354Z,98334.09
2023-09-20T08:21:26.738Z,98342.69
2023-09-20T08:22:46.883Z,98336.56
2023-09-20T08:24:07.034Z,98339.13
2023-09-20T08:25:28.018Z,98327.03
2023-09-20T08:26:48.418Z,98336.69
2023-09-20T08:28:09.085Z,98328.91
2023-09-20T08:29:29.337Z,98338.59
2023-09-20T08:30:49.964Z,98332.94
2023-09-20T08:32:12.004Z,98332.16
2023-09-20T08:33:32.515Z,98327.03
2023-09-20T08:34:53.365Z,98334.00
2023-09-20T08:36:13.642Z,98336.19
2023-09-20T08:37:33.913Z,98334.84
2023-09-20T08:38:54.572Z,98335.09
2023-09-20T08:40:14.576Z,98334.59
2023-09-20T08:41:35.090Z,98344.28
2023-09-20T08:42:56.539Z,98335.41
2023-09-20T08:44:17.841Z,98342.09
2023-09-20T08:45:44.910Z,98339.63
2023-09-20T08:47:08.202Z,98338.34
2023-09-20T08:48:34.742Z,98338.34
2023-09-20T08:49:56.599Z,98337.53
2023-09-20T08:53:29.168Z,98355.63
2023-09-20T08:54:49.681Z,98345.38
2023-09-20T08:56:10.154Z,98346.97
2023-09-20T08:57:32.636Z,98344.78
2023-09-20T08:58:54.050Z,98349.13
2023-09-20T08:59:56.933Z,98344.53
2023-09-20T09:01:00.612Z,98349.38
2023-09-20T09:02:13.399Z,98348.03
2023-09-20T09:03:17.217Z,98346.13
2023-09-20T09:04:22.608Z,98346.94
2023-09-20T09:05:28.657Z,98343.13
2023-09-20T09:06:32.095Z,98348.53
2023-09-20T09:07:34.030Z,98343.66
2023-09-20T09:08:36.086Z,98351.72
2023-09-20T09:09:39.947Z,98348.75
2023-09-20T09:10:41.976Z,98341.47
2023-09-20T09:11:46.971Z,98349.25
2023-09-20T09:12:49.635Z,98338.47
2023-09-20T09:13:53.255Z,98341.97
2023-09-20T09:14:55.661Z,98340.91
2023-09-20T09:15:57.749Z,98337.91
2023-09-20T09:17:04.520Z,98338.13
2023-09-20T09:18:21.898Z,98337.25
2023-09-20T09:19:24.301Z,98344.53
2023-09-20T09:20:29.845Z,98340.53
2023-09-20T09:21:32.137Z,98344.81
2023-09-20T09:22:36.308Z,98341.84
2023-09-20T09:23:40.233Z,98342.94
2023-09-20T09:24:49.582Z,98348.78
2023-09-20T09:25:51.458Z,98336.97
2023-09-20T09:27:06.540Z,98340.91
2023-09-20T09:28:08.543Z,98334.78
2023-09-20T09:29:21.243Z,98337.09
2023-09-20T09:30:26.063Z,98338.00
2023-09-20T09:31:31.216Z,98333.69
2023-09-20T09:32:38.244Z,98336.91
2023-09-20T09:33:41.241Z,98331.50
2023-09-20T09:34:43.666Z,98329.09
2023-09-20T09:35:48.740Z,98329.91
2023-09-20T09:36:50.741Z,98335.81
2023-09-20T09:37:52.749Z,98326.91
2023-09-20T09:39:24.226Z,98333.00
2023-09-20T09:40:30.772Z,98328.16
2023-09-20T09:41:46.172Z,98322.41
2023-09-20T09:42:49.275Z,98320.88
2023-09-20T09:43:59.965Z,98321.13
2023-09-20T09:45:04.645Z,98318.97
2023-09-20T09:46:11.492Z,98322.72
2023-09-20T09:47:14.908Z,98316.81
2023-09-20T09:48:25.607Z,98306.78
2023-09-20T09:49:27.801Z,98311.63
2023-09-20T09:50:30.317Z,98312.44
2023-09-20T09:51:33.878Z,98314.06
2023-09-20T09:52:40.298Z,98316.19
2023-09-20T09:53:46.031Z,98314.28
2023-09-20T09:54:48.360Z,98304.78
2023-09-20T09:55:51.548Z,98316.09
2023-09-20T09:56:53.565Z,98314.47
2023-09-20T09:57:55.729Z,98312.28
2023-09-20T09:58:57.932Z,98313.88
2023-09-20T10:00:00.121Z,98316.31
2023-09-20T10:01:07.792Z,98311.72
2023-09-20T10:02:30.215Z,98314.78
2023-09-20T10:03:35.599Z,98319.94
2023-09-20T10:04:40.134Z,98312.94
2023-09-20T10:05:45.829Z,98307.25
2023-09-20T10:07:02.757Z,98311.56
2023-09-20T10:08:08.385Z,98310.97
2023-09-20T10:09:13.419Z,98308.28
2023-09-20T10:10:17.637Z,98306.09
2023-09-20T10:11:24.630Z,98306.09
2023-09-20T10:12:26.935Z,98298.78
2023-09-20T10:13:30.933Z,98302.59
2023-09-20T10:14:37.539Z,98300.09
2023-09-20T10:15:39.823Z,98293.59
2023-09-20T10:16:44.011Z,98286.59
2023-09-20T10:17:56.663Z,98290.22
2023-09-20T10:19:02.147Z,98291.13
2023-09-20T10:20:08.632Z,98287.63
2023-09-20T10:21:16.105Z,98286.53
2023-09-20T10:22:24.924Z,98284.25
2023-09-20T10:23:28.443Z,98282.13
2023-09-20T10:24:30.756Z,98280.84
2023-09-20T10:25:35.941Z,98282.94
2023-09-20T10:26:41.958Z,98280.47
2023-09-20T10:27:44.139Z,98278.84
2023-09-20T10:28:47.143Z,98283.44
2023-09-20T10:30:10.367Z,98277.56
2023-09-20T10:31:18.616Z,98282.97
2023-09-20T10:32:23.493Z,98277.66
2023-09-20T10:33:50.125Z,98273.13
2023-09-20T10:35:21.218Z,98280.34
2023-09-20T10:36:29.932Z,98273.72
2023-09-20T10:37:33.375Z,98269.47
2023-09-20T10:38:35.387Z,98271.38
2023-09-20T10:39:40.032Z,98280.56
2023-09-20T10:40:56.269Z,98265.13
2023-09-20T10:42:11.220Z,98265.56
2023-09-20T10:43:16.864Z,98257.03
2023-09-20T10:44:39.555Z,98263.06
2023-09-20T10:45:42.418Z,98268.03
2023-09-20T10:46:49.728Z,98258.34
2023-09-20T10:47:54.048Z,98255.63
2023-09-20T10:48:57.669Z,98259.44
2023-09-20T10:50:00.694Z,98251.84
2023-09-20T10:51:05.073Z,98249.13
2023-09-20T10:52:06.918Z,98248.03
2023-09-20T10:53:11.564Z,98250.72
2023-09-20T10:54:24.656Z,98252.44
2023-09-20T10:55:29.839Z,98250.66
2023-09-20T10:56:44.653Z,98249.94
2023-09-20T10:57:51.839Z,98249.75
2023-09-20T10:58:53.827Z,98248.44
2023-09-20T10:59:55.756Z,98246.56
2023-09-20T11:00:58.775Z,98241.16
2023-09-20T11:02:06.479Z,98244.34
2023-09-20T11:03:09.562Z,98246.75
2023-09-20T11:04:11.553Z,98246.44
2023-09-20T11:05:15.251Z,98238.66
2023-09-20T11:06:17.809Z,98241.03
2023-09-20T11:07:19.931Z,98232.66
2023-09-20T11:08:22.769Z,98228.06
2023-09-20T11:09:26.759Z,98226.97
2023-09-20T11:10:29.472Z,98224.28
2023-09-20T11:11:32.761Z,98223.16
2023-09-20T11:12:34.701Z,98222.56
2023-09-20T11:13:36.548Z,98217.97
2023-09-20T11:14:45.891Z,98218.97
2023-09-20T11:15:48.262Z,98219.25
2023-09-20T11:16:50.502Z,98213.84
2023-09-20T11:17:52.984Z,98213.84
2023-09-20T11:18:55.960Z,98215.44
2023-09-20T11:19:59.331Z,98208.19
2023-09-20T11:21:02.336Z,98206.28
2023-09-20T11:22:04.720Z,98201.66
2023-09-20T11:23:08.085Z,98199.78
2023-09-20T11:24:13.610Z,98203.47
2023-09-20T11:25:16.321Z,98204.56
2023-09-20T11:26:31.391Z,98200.84
2023-09-20T11:27:35.973Z,98196.66
2023-09-20T11:28:38.467Z,98198.56
2023-09-20T11:29:45.073Z,98200.94
2023-09-20T11:30:52.567Z,98199.03
2023-09-20T11:32:00.588Z,98200.84
2023-09-20T11:33:02.789Z,98197.97
2023-09-20T11:34:09.654Z,98200.66
2023-09-20T11:35:13.013Z,98203.88
2023-09-20T11:36:20.459Z,98192.75
2023-09-20T11:37:23.825Z,98192.75
2023-09-20T11:38:27.646Z,98186.25
2023-09-20T11:39:29.745Z,98185.44
2023-09-20T11:40:33.107Z,98185.75
2023-09-20T11:41:37.305Z,98186.56
2023-09-20T11:42:44.416Z,98182.13
2023-09-20T11:43:49.391Z,98186.44
2023-09-20T11:45:06.443Z,98175.06
2023-09-20T11:46:18.257Z,98181.75
2023-09-20T11:47:21.168Z,98176.13
2023-09-20T11:48:24.032Z,98176.91
2023-09-20T11:49:29.118Z,98177.75
2023-09-20T11:50:31.281Z,98179.34
2023-09-20T11:51:36.359Z,98175.53
2023-09-20T11:52:38.407Z,98170.94
2023-09-20T11:53:45.380Z,98177.13
2023-09-20T11:54:48.956Z,98170.94
2023-09-20T11:55:54.668Z,98169.34
2023-09-20T11:57:03.194Z,98177.34
2023-09-20T11:58:05.176Z,98167.66
2023-09-20T11:59:12.560Z,98173.06
2023-09-20T12:00:20.108Z,98166.72
2023-09-20T12:01:26.604Z,98179.16
2023-09-20T12:02:29.989Z,98169.44
2023-09-20T12:03:32.168Z,98172.44
2023-09-20T12:04:34.252Z,98166.72
2023-09-20T12:05:37.345Z,98168.63
2023-09-20T12:06:39.233Z,98171.06
2023-09-20T12:07:41.430Z,98168.34
2023-09-20T12:08:45.090Z,98162.34
2023-09-20T12:09:47.242Z,98166.63
2023-09-20T12:10:49.123Z,98163.63
2023-09-20T12:11:51.760Z,98156.31
2023-09-20T12:12:55.108Z,98160.91
2023-09-20T12:13:58.097Z,98159.50
2023-09-20T12:14:59.995Z,98163.81
2023-09-20T12:16:01.902Z,98160.81
2023-09-20T12:17:03.886Z,98148.13
2023-09-20T12:18:06.434Z,98158.91
2023-09-20T12:19:09.485Z,98154.00
2023-09-20T12:20:13.310Z,98143.19
2023-09-20T12:21:16.846Z,98140.97
2023-09-20T12:22:21.238Z,98140.97
2023-09-20T12:23:24.239Z,98142.56
2023-09-20T12:24:26.409Z,98137.19
2023-09-20T12:25:28.377Z,98137.97
2023-09-20T12:26:30.340Z,98131.78
2023-09-20T12:27:32.334Z,98137.19
2023-09-20T12:28:34.337Z,98132.88
2023-09-20T12:29:36.290Z,98128.75
2023-09-20T12:30:40.960Z,98121.28
2023-09-20T12:31:43.030Z,98126.06
2023-09-20T12:32:45.152Z,98121.44
2023-09-20T12:33:48.060Z,98116.84
2023-09-20T12:34:52.865Z,98119.22
2023-09-20T12:35:55.730Z,98114.94
2023-09-20T12:36:58.088Z,98115.72
2023-09-20T12:38:00.114Z,98115.44
2023-09-20T12:39:02.674Z,98107.34
2023-09-20T12:40:09.282Z,98109.22
2023-09-20T12:41:12.776Z,98101.63
2023-09-20T12:42:14.824Z,98104.03
2023-09-20T12:43:17.241Z,98096.22
2023-09-20T12:44:19.913Z,98093.22
2023-09-20T12:45:24.529Z,98094.81